createdAt,value
2019-04-28T00:00:41.150Z,13.34
2019-04-28T00:03:12.841Z,12.95
2019-04-28T00:05:44.565Z,13.33
2019-04-28T00:08:16.310Z,14.45
2019-04-28T00:10:49.348Z,15.46
2019-04-28T00:13:21.165Z,15.52
2019-04-28T00:15:55.654Z,14.87
2019-04-28T00:18:27.386Z,14.35
2019-04-28T00:21:01.000Z,13.86
2019-04-28T00:23:51.222Z,13.48
2019-04-28T00:26:31.069Z,13.04
2019-04-28T00:29:03.227Z,13.58
2019-04-28T00:31:35.320Z,14.63
2019-04-28T00:34:07.223Z,15.49
2019-04-28T00:36:41.225Z,16.18
2019-04-28T00:39:13.539Z,16.05
2019-04-28T00:41:45.193Z,15.37
2019-04-28T00:44:17.601Z,14.79
2019-04-28T00:46:51.198Z,14.34
2019-04-28T00:49:42.342Z,13.89
2019-04-28T00:52:14.470Z,13.44
2019-04-28T00:54:47.831Z,13.80
2019-04-28T00:57:21.139Z,14.91
2019-04-28T00:59:57.939Z,15.95
2019-04-28T01:02:28.219Z,16.80
2019-04-28T01:05:01.645Z,16.62
2019-04-28T01:07:33.377Z,15.90
2019-04-28T01:10:08.209Z,15.30
2019-04-28T01:12:41.379Z,14.80
2019-04-28T01:15:15.591Z,14.34
2019-04-28T01:17:50.217Z,13.90
2019-04-28T01:20:24.063Z,13.51
2019-04-28T01:22:55.727Z,13.10
2019-04-28T01:25:27.756Z,13.42
2019-04-28T01:28:00.415Z,14.45
2019-04-28T01:30:37.445Z,15.43
2019-04-28T01:33:30.870Z,15.48
2019-04-28T01:36:02.704Z,14.77
2019-04-28T01:38:34.457Z,14.18
2019-04-28T01:41:06.159Z,13.68
2019-04-28T01:43:38.317Z,13.21
2019-04-28T01:46:10.211Z,12.79
2019-04-28T01:48:43.516Z,12.41
2019-04-28T01:51:15.145Z,12.82
2019-04-28T01:53:46.899Z,13.70
2019-04-28T01:56:20.350Z,14.52
2019-04-28T01:58:51.986Z,15.27
2019-04-28T02:01:23.717Z,15.13
2019-04-28T02:03:55.477Z,14.51
2019-04-28T02:06:27.208Z,13.94
2019-04-28T02:09:01.723Z,13.48
2019-04-28T02:11:35.055Z,13.03
2019-04-28T02:14:06.818Z,12.68
2019-04-28T02:16:40.418Z,13.14
2019-04-28T02:19:11.900Z,14.25
2019-04-28T02:22:03.444Z,15.24
2019-04-28T02:24:36.270Z,16.12
2019-04-28T02:27:08.077Z,16.05
2019-04-28T02:29:41.672Z,15.41
2019-04-28T02:32:13.281Z,14.80
2019-04-28T02:34:45.633Z,14.29
2019-04-28T02:37:17.467Z,13.83
2019-04-28T02:39:50.579Z,13.39
2019-04-28T02:42:22.523Z,13.03
2019-04-28T02:44:54.271Z,13.44
2019-04-28T02:47:26.009Z,14.51
2019-04-28T02:50:02.520Z,15.31
2019-04-28T02:52:52.158Z,15.95
2019-04-28T02:55:24.202Z,15.70
2019-04-28T02:57:55.829Z,15.08
2019-04-28T03:00:27.745Z,14.55
2019-04-28T03:03:01.332Z,14.07
2019-04-28T03:05:33.823Z,13.66
2019-04-28T03:08:05.648Z,13.31
2019-04-28T03:10:37.403Z,13.83
2019-04-28T03:13:10.841Z,14.90
2019-04-28T03:15:43.713Z,15.91
2019-04-28T03:18:15.442Z,16.77
2019-04-28T03:20:47.210Z,16.67
2019-04-28T03:23:20.727Z,16.04
2019-04-28T03:25:53.908Z,15.42
2019-04-28T03:28:26.638Z,14.97
2019-04-28T03:31:22.084Z,14.52
2019-04-28T03:33:43.413Z,14.10
2019-04-28T03:36:15.072Z,13.72
2019-04-28T03:38:43.652Z,14.20
2019-04-28T03:41:15.388Z,15.28
2019-04-28T03:43:47.129Z,16.32
2019-04-28T03:46:22.975Z,16.29
2019-04-28T03:48:54.622Z,15.67
2019-04-28T03:51:26.492Z,15.15
2019-04-28T03:54:00.599Z,14.73
2019-04-28T03:56:31.491Z,14.27
2019-04-28T03:59:03.228Z,14.62
2019-04-28T04:01:52.046Z,15.49
2019-04-28T04:04:11.318Z,16.29
2019-04-28T04:06:44.075Z,16.14
2019-04-28T04:09:15.829Z,15.46
2019-04-28T04:12:05.666Z,14.93
2019-04-28T04:14:41.138Z,14.48
2019-04-28T04:17:17.495Z,14.11
2019-04-28T04:19:50.387Z,14.48
2019-04-28T04:22:22.565Z,15.52
2019-04-28T04:24:54.304Z,16.45
2019-04-28T04:27:26.261Z,16.42
2019-04-28T04:29:57.778Z,15.84
2019-04-28T04:32:30.554Z,15.32
2019-04-28T04:35:03.699Z,14.97
2019-04-28T04:37:35.556Z,14.66
2019-04-28T04:40:07.762Z,14.35
2019-04-28T04:42:40.261Z,14.91
2019-04-28T04:45:12.690Z,16.10
2019-04-28T04:47:44.447Z,17.10
2019-04-28T04:50:16.173Z,16.95
2019-04-28T04:52:50.229Z,16.63
2019-04-28T04:55:22.189Z,16.35
2019-04-28T04:57:53.931Z,16.21
2019-04-28T05:00:31.279Z,16.03
2019-04-28T05:03:21.274Z,15.83
2019-04-28T05:05:53.164Z,15.62
2019-04-28T05:08:26.373Z,15.42
2019-04-28T05:10:59.974Z,15.27
2019-04-28T05:13:31.558Z,15.13
2019-04-28T05:16:03.279Z,15.07
2019-04-28T05:18:35.038Z,15.05
2019-04-28T05:21:06.772Z,15.10
2019-04-28T05:23:49.308Z,15.07
2019-04-28T05:26:21.364Z,15.15
2019-04-28T05:28:59.191Z,15.53
2019-04-28T05:31:31.026Z,16.11
2019-04-28T05:34:04.093Z,16.56
2019-04-28T05:36:41.250Z,17.10
2019-04-28T05:39:10.501Z,17.46
2019-04-28T05:41:42.370Z,17.85
2019-04-28T05:44:14.122Z,18.26
2019-04-28T05:46:45.854Z,18.77
2019-04-28T05:49:19.486Z,19.23
2019-04-28T05:51:52.887Z,19.26
2019-04-28T05:54:24.298Z,19.08
2019-04-28T05:56:59.698Z,19.05
2019-04-28T05:59:45.584Z,19.02
2019-04-28T06:02:22.044Z,18.80
2019-04-28T06:04:53.898Z,18.50
2019-04-28T06:07:34.093Z,18.22
2019-04-28T06:10:08.236Z,17.94
2019-04-28T06:12:41.209Z,17.76
2019-04-28T06:15:13.355Z,17.60
2019-04-28T06:17:45.121Z,17.58
2019-04-28T06:20:20.131Z,17.62
2019-04-28T06:22:52.001Z,17.60
2019-04-28T06:25:23.767Z,17.52
2019-04-28T06:27:55.509Z,17.39
2019-04-28T06:30:27.263Z,17.32
2019-04-28T06:33:07.704Z,17.26
2019-04-28T06:35:32.876Z,17.23
2019-04-28T06:38:05.363Z,17.17
2019-04-28T06:40:37.036Z,17.12
2019-04-28T06:43:08.768Z,17.02
2019-04-28T06:45:40.531Z,16.93
2019-04-28T06:48:12.260Z,16.83
2019-04-28T06:50:43.827Z,16.74
2019-04-28T06:53:15.468Z,16.64
2019-04-28T06:55:47.352Z,16.56
2019-04-28T06:58:19.093Z,16.45
2019-04-28T07:00:50.848Z,16.38
2019-04-28T07:03:23.486Z,16.27
2019-04-28T07:05:55.227Z,16.17
2019-04-28T07:08:29.321Z,16.04
2019-04-28T07:11:01.467Z,15.93
2019-04-28T07:13:33.006Z,15.80
2019-04-28T07:16:05.696Z,15.70
2019-04-28T07:18:37.406Z,15.59
2019-04-28T07:21:29.000Z,15.59
2019-04-28T07:24:00.913Z,16.81
2019-04-28T07:26:33.970Z,17.98
2019-04-28T07:29:05.657Z,18.16
2019-04-28T07:31:37.412Z,17.74
2019-04-28T07:34:10.310Z,17.43
2019-04-28T07:36:42.170Z,17.17
2019-04-28T07:39:14.774Z,16.94
2019-04-28T07:41:46.709Z,16.73
2019-04-28T07:44:18.345Z,16.52
2019-04-28T07:46:50.163Z,16.35
2019-04-28T07:49:25.171Z,16.15
2019-04-28T07:52:18.119Z,16.03
2019-04-28T07:54:54.045Z,15.86
2019-04-28T07:57:28.128Z,15.73
2019-04-28T07:59:59.993Z,15.62
2019-04-28T08:02:31.650Z,15.53
2019-04-28T08:05:04.254Z,15.46
2019-04-28T08:07:36.075Z,15.38
2019-04-28T08:10:08.788Z,15.31
2019-04-28T08:12:40.331Z,15.28
2019-04-28T08:15:13.851Z,15.67
2019-04-28T08:17:46.931Z,16.97
2019-04-28T08:20:23.369Z,18.18
2019-04-28T08:22:55.001Z,18.01
2019-04-28T08:25:32.167Z,17.76
2019-04-28T08:28:04.196Z,17.54
2019-04-28T08:30:36.643Z,17.33
2019-04-28T08:33:29.575Z,17.17
2019-04-28T08:36:06.152Z,16.95
2019-04-28T08:38:41.633Z,16.83
2019-04-28T08:41:17.055Z,16.68
2019-04-28T08:43:51.137Z,16.57
2019-04-28T08:46:23.211Z,16.40
2019-04-28T08:48:54.971Z,16.27
2019-04-28T08:51:27.171Z,16.14
2019-04-28T08:54:01.896Z,16.03
2019-04-28T08:56:35.113Z,15.95
2019-04-28T08:59:06.883Z,15.86
2019-04-28T09:01:39.785Z,15.78
2019-04-28T09:04:15.569Z,15.70
2019-04-28T09:06:49.865Z,15.73
2019-04-28T09:09:30.322Z,15.77
2019-04-28T09:12:01.999Z,15.78
2019-04-28T09:14:33.745Z,15.77
2019-04-28T09:17:05.574Z,15.76
2019-04-28T09:19:37.219Z,15.77
2019-04-28T09:22:08.997Z,15.81
2019-04-28T09:24:40.737Z,15.80
2019-04-28T09:27:12.668Z,15.84
2019-04-28T09:29:44.554Z,15.87
2019-04-28T09:32:16.350Z,15.90
2019-04-28T09:34:49.624Z,15.91
2019-04-28T09:37:21.236Z,15.98
2019-04-28T09:39:57.445Z,16.05
2019-04-28T09:42:29.684Z,16.11
2019-04-28T09:45:04.141Z,16.20
2019-04-28T09:47:36.358Z,16.27
2019-04-28T09:50:08.912Z,16.36
2019-04-28T09:52:40.657Z,16.46
2019-04-28T09:55:13.113Z,16.55
2019-04-28T09:57:50.859Z,16.62
2019-04-28T10:00:23.018Z,16.68
2019-04-28T10:02:54.762Z,16.76
2019-04-28T10:05:26.545Z,16.77
2019-04-28T10:08:00.245Z,16.81
2019-04-28T10:10:31.776Z,16.86
2019-04-28T10:13:05.156Z,16.90
2019-04-28T10:15:41.409Z,16.90
2019-04-28T10:18:13.634Z,16.94
2019-04-28T10:20:45.209Z,16.94
2019-04-28T10:23:21.707Z,17.00
2019-04-28T10:25:53.458Z,17.02
2019-04-28T10:28:25.293Z,17.04
2019-04-28T10:30:56.971Z,17.10
2019-04-28T10:33:31.943Z,17.11
2019-04-28T10:36:06.449Z,17.10
2019-04-28T10:38:41.804Z,17.12
2019-04-28T10:41:24.469Z,17.14
2019-04-28T10:43:58.343Z,17.17
2019-04-28T10:46:30.832Z,17.22
2019-04-28T10:49:02.364Z,17.25
2019-04-28T10:51:34.150Z,17.29
2019-04-28T10:54:05.957Z,17.32
2019-04-28T10:56:37.893Z,17.37
2019-04-28T10:59:09.755Z,17.42
2019-04-28T11:01:45.200Z,17.49
2019-04-28T11:04:35.813Z,17.54
2019-04-28T11:07:09.832Z,17.60
2019-04-28T11:09:44.237Z,17.66
2019-04-28T11:12:34.075Z,17.64
2019-04-28T11:15:04.669Z,17.67
2019-04-28T11:17:36.572Z,17.66
2019-04-28T11:20:09.249Z,17.63
2019-04-28T11:22:42.622Z,17.63
2019-04-28T11:25:14.547Z,17.60
2019-04-28T11:27:46.282Z,17.56
2019-04-28T11:30:19.635Z,17.53
2019-04-28T11:33:00.739Z,17.49
2019-04-28T11:35:34.015Z,17.47
2019-04-28T11:38:05.918Z,17.52
2019-04-28T11:40:39.906Z,17.57
2019-04-28T11:43:17.426Z,17.62
2019-04-28T11:45:53.243Z,17.67
2019-04-28T11:48:27.875Z,17.67
2019-04-28T11:51:01.390Z,17.70
2019-04-28T11:53:35.121Z,17.67
2019-04-28T11:56:06.998Z,17.63
2019-04-28T11:58:38.787Z,17.60
2019-04-28T12:01:12.129Z,17.53
2019-04-28T12:03:54.080Z,17.50
2019-04-28T12:06:27.677Z,17.47
2019-04-28T12:09:05.448Z,17.37
2019-04-28T12:11:47.834Z,17.33
2019-04-28T12:14:24.495Z,17.28
2019-04-28T12:17:19.820Z,17.19
2019-04-28T12:19:55.916Z,17.14
2019-04-28T12:22:44.166Z,17.05
2019-04-28T12:25:10.197Z,16.98
2019-04-28T12:27:46.123Z,16.93
2019-04-28T12:30:23.649Z,16.91
2019-04-28T12:33:02.744Z,16.84
2019-04-28T12:35:48.026Z,16.80
2019-04-28T12:38:18.138Z,16.76
2019-04-28T12:40:59.612Z,16.67
2019-04-28T12:43:31.452Z,16.63
2019-04-28T12:46:05.786Z,16.53
2019-04-28T12:48:46.630Z,16.43
2019-04-28T12:51:20.000Z,16.38
2019-04-28T12:54:04.027Z,16.31
2019-04-28T12:56:37.518Z,16.25
2019-04-28T12:59:19.637Z,16.21
2019-04-28T13:02:11.803Z,16.21
2019-04-28T13:04:48.028Z,16.27
2019-04-28T13:07:23.926Z,16.32
2019-04-28T13:09:55.908Z,16.35
2019-04-28T13:12:32.203Z,16.39
2019-04-28T13:15:07.906Z,16.42
2019-04-28T13:17:41.362Z,16.43
2019-04-28T13:20:20.823Z,16.43
2019-04-28T13:22:55.122Z,16.48
2019-04-28T13:25:28.300Z,16.48
2019-04-28T13:28:03.135Z,16.49
2019-04-28T13:30:34.888Z,16.50
2019-04-28T13:33:07.806Z,16.49
2019-04-28T13:35:39.576Z,16.45
2019-04-28T13:38:11.547Z,16.43
2019-04-28T13:40:47.645Z,16.39
2019-04-28T13:43:22.437Z,16.36
2019-04-28T13:45:54.318Z,16.33
2019-04-28T13:48:26.170Z,16.31
2019-04-28T13:50:57.825Z,16.27
2019-04-28T13:53:29.573Z,16.22
2019-04-28T13:56:03.388Z,16.17
2019-04-28T13:58:36.607Z,16.12
2019-04-28T14:01:19.054Z,16.07
2019-04-28T14:04:01.549Z,16.01
2019-04-28T14:06:40.753Z,15.97
2019-04-28T14:09:19.430Z,15.88
2019-04-28T14:11:53.280Z,15.80
2019-04-28T14:14:27.846Z,15.70
2019-04-28T14:17:07.585Z,15.62
2019-04-28T14:19:44.084Z,15.58
2019-04-28T14:22:19.532Z,15.52
2019-04-28T14:25:00.098Z,15.45
2019-04-28T14:27:36.913Z,15.39
2019-04-28T14:30:13.692Z,15.34
2019-04-28T14:32:45.746Z,15.28
2019-04-28T14:35:22.951Z,15.24
2019-04-28T14:38:07.739Z,15.18
2019-04-28T14:40:44.012Z,15.13
2019-04-28T14:43:21.943Z,15.07
2019-04-28T14:45:54.471Z,14.98
2019-04-28T14:48:36.809Z,14.93
2019-04-28T14:51:11.656Z,14.84
2019-04-28T14:53:45.223Z,14.79
2019-04-28T14:56:17.110Z,14.73
2019-04-28T14:58:48.925Z,15.49
2019-04-28T15:01:37.607Z,16.84
2019-04-28T15:04:13.976Z,17.10
2019-04-28T15:06:55.523Z,16.70
2019-04-28T15:09:39.335Z,16.45
2019-04-28T15:12:11.023Z,16.18
2019-04-28T15:14:42.736Z,16.00
2019-04-28T15:17:14.500Z,15.84
2019-04-28T15:19:46.235Z,15.72
2019-04-28T15:22:18.018Z,16.49
2019-04-28T15:24:49.746Z,17.63
2019-04-28T15:27:21.505Z,17.92
2019-04-28T15:29:53.326Z,17.46
2019-04-28T15:32:25.538Z,17.10
2019-04-28T15:34:57.422Z,16.83
2019-04-28T15:37:29.208Z,16.53
2019-04-28T15:40:00.961Z,16.27
2019-04-28T15:42:34.098Z,16.74
2019-04-28T15:45:08.069Z,17.78
2019-04-28T15:47:42.348Z,18.33
2019-04-28T15:50:19.323Z,17.87
2019-04-28T15:52:51.176Z,17.43
2019-04-28T15:55:27.784Z,17.05
2019-04-28T15:58:01.140Z,16.67
2019-04-28T16:00:35.164Z,16.39
2019-04-28T16:03:10.448Z,16.94
2019-04-28T16:05:42.204Z,18.07
2019-04-28T16:08:14.954Z,18.91
2019-04-28T16:10:46.654Z,18.36
2019-04-28T16:13:18.412Z,17.77
2019-04-28T16:15:50.147Z,17.30
2019-04-28T16:18:21.897Z,16.90
2019-04-28T16:20:53.645Z,16.91
2019-04-28T16:23:25.291Z,17.94
2019-04-28T16:25:56.906Z,19.01
2019-04-28T16:28:29.751Z,18.95
2019-04-28T16:31:01.807Z,18.25
2019-04-28T16:33:33.345Z,17.67
2019-04-28T16:36:05.156Z,17.18
2019-04-28T16:38:36.988Z,17.01
2019-04-28T16:41:11.519Z,18.01
2019-04-28T16:43:44.534Z,18.32
2019-04-28T16:46:16.096Z,17.76
2019-04-28T16:48:48.928Z,17.19
2019-04-28T16:51:20.798Z,16.70
2019-04-28T16:53:52.700Z,17.14
2019-04-28T16:56:26.131Z,18.18
2019-04-28T16:58:59.717Z,18.64
2019-04-28T17:01:39.463Z,17.91
2019-04-28T17:04:11.354Z,17.28
2019-04-28T17:06:42.983Z,16.90
2019-04-28T17:09:16.552Z,17.71
2019-04-28T17:11:48.274Z,18.66
2019-04-28T17:14:20.846Z,18.27
2019-04-28T17:16:52.652Z,17.54
2019-04-28T17:19:24.469Z,16.98
2019-04-28T17:21:56.194Z,16.60
2019-04-28T17:24:27.783Z,17.26
2019-04-28T17:26:59.685Z,18.27
2019-04-28T17:29:31.606Z,18.84
2019-04-28T17:32:03.171Z,18.19
2019-04-28T17:34:34.993Z,17.53
2019-04-28T17:37:08.527Z,16.97
2019-04-28T17:39:40.803Z,16.59
2019-04-28T17:42:13.383Z,17.37
2019-04-28T17:44:45.305Z,18.37
2019-04-28T17:47:18.810Z,18.44
2019-04-28T17:49:50.339Z,17.73
2019-04-28T17:52:21.948Z,17.11
2019-04-28T17:54:53.471Z,16.60
2019-04-28T17:57:26.534Z,16.93
2019-04-28T18:00:00.904Z,17.97
2019-04-28T18:02:41.573Z,18.95
2019-04-28T18:05:15.148Z,18.94
2019-04-28T18:07:49.343Z,18.18
2019-04-28T18:10:22.132Z,17.53
2019-04-28T18:13:00.867Z,16.95
2019-04-28T18:15:35.206Z,17.07
2019-04-28T18:18:11.732Z,18.13
2019-04-28T18:20:43.447Z,19.27
2019-04-28T18:23:15.253Z,19.13
2019-04-28T18:25:48.011Z,18.27
2019-04-28T18:28:21.041Z,17.64
2019-04-28T18:30:54.235Z,17.10
2019-04-28T18:33:31.039Z,16.73
2019-04-28T18:36:04.351Z,17.58
2019-04-28T18:38:38.721Z,18.54
2019-04-28T18:41:28.336Z,18.46
2019-04-28T18:44:10.301Z,17.63
2019-04-28T18:46:42.182Z,17.00
2019-04-28T18:49:15.625Z,16.56
2019-04-28T18:51:48.153Z,17.45
2019-04-28T18:54:19.918Z,18.40
2019-04-28T18:56:52.520Z,18.27
2019-04-28T18:59:24.411Z,17.54
2019-04-28T19:01:59.651Z,16.91
2019-04-28T19:04:32.209Z,16.66
2019-04-28T19:07:05.649Z,17.49
2019-04-28T19:09:54.410Z,18.36
2019-04-28T19:12:28.763Z,18.16
2019-04-28T19:15:08.094Z,17.40
2019-04-28T19:17:47.130Z,16.80
2019-04-28T19:20:18.996Z,16.20
2019-04-28T19:22:50.755Z,15.83
2019-04-28T19:25:22.514Z,16.74
2019-04-28T19:27:54.299Z,17.69
2019-04-28T19:30:26.125Z,17.58
2019-04-28T19:32:58.120Z,16.83
2019-04-28T19:35:29.839Z,16.20
2019-04-28T19:38:01.557Z,16.49
2019-04-28T19:40:33.319Z,17.56
2019-04-28T19:43:05.149Z,17.58
2019-04-28T19:45:38.597Z,16.90
2019-04-28T19:48:12.518Z,16.29
2019-04-28T19:50:46.443Z,16.62
2019-04-28T19:53:18.060Z,17.62
2019-04-28T19:55:56.372Z,17.80
2019-04-28T19:58:47.080Z,17.00
2019-04-28T20:01:27.082Z,16.33
2019-04-28T20:04:00.253Z,16.67
2019-04-28T20:06:39.002Z,17.69
2019-04-28T20:09:11.639Z,17.64
2019-04-28T20:11:45.106Z,16.90
2019-04-28T20:14:21.506Z,16.25
2019-04-28T20:16:56.480Z,17.02
2019-04-28T20:19:36.403Z,17.88
2019-04-28T20:22:35.961Z,17.33
2019-04-28T20:24:58.233Z,16.59
2019-04-28T20:27:33.638Z,16.28
2019-04-28T20:30:07.861Z,17.15
2019-04-28T20:32:49.545Z,17.99
2019-04-28T20:35:23.229Z,17.57
2019-04-28T20:38:00.682Z,16.87
2019-04-28T20:40:46.290Z,16.27
2019-04-28T20:43:28.463Z,15.83
2019-04-28T20:46:04.661Z,16.77
2019-04-28T20:48:40.360Z,17.66
2019-04-28T20:51:19.784Z,17.95
2019-04-28T20:53:56.172Z,17.14
2019-04-28T20:56:35.511Z,16.43
2019-04-28T20:59:07.475Z,16.32
2019-04-28T21:01:43.876Z,17.29
2019-04-28T21:04:24.705Z,18.08
2019-04-28T21:06:57.999Z,17.97
2019-04-28T21:09:30.995Z,17.18
2019-04-28T21:12:02.738Z,16.53
2019-04-28T21:14:34.493Z,15.94
2019-04-28T21:17:06.231Z,16.40
2019-04-28T21:19:38.073Z,17.40
2019-04-28T21:22:09.837Z,18.08
2019-04-28T21:24:41.585Z,17.63
2019-04-28T21:27:13.310Z,16.88
2019-04-28T21:29:45.075Z,16.29
2019-04-28T21:32:16.801Z,16.08
2019-04-28T21:34:48.567Z,17.01
2019-04-28T21:37:20.297Z,17.87
2019-04-28T21:39:52.175Z,17.33
2019-04-28T21:42:25.456Z,16.59
2019-04-28T21:45:05.374Z,16.07
2019-04-28T21:47:38.887Z,16.78
2019-04-28T21:50:10.521Z,17.70
2019-04-28T21:52:42.412Z,18.29
2019-04-28T21:55:14.066Z,17.66
2019-04-28T21:57:47.317Z,16.88
2019-04-28T22:00:26.076Z,16.31
2019-04-28T22:03:15.744Z,16.62
2019-04-28T22:05:47.505Z,17.60
2019-04-28T22:08:19.255Z,18.30
2019-04-28T22:10:51.026Z,17.77
2019-04-28T22:13:22.759Z,16.95
2019-04-28T22:15:54.503Z,16.33
2019-04-28T22:18:26.237Z,16.27
2019-04-28T22:20:58.468Z,17.19
2019-04-28T22:23:34.656Z,18.09
2019-04-28T22:26:06.283Z,17.74
2019-04-28T22:28:37.917Z,16.97
2019-04-28T22:31:10.755Z,16.33
2019-04-28T22:33:42.380Z,16.05
2019-04-28T22:36:14.127Z,16.91
2019-04-28T22:38:45.887Z,17.85
2019-04-28T22:41:17.625Z,17.56
2019-04-28T22:43:49.405Z,16.80
2019-04-28T22:46:21.145Z,16.15
2019-04-28T22:48:54.534Z,16.32
2019-04-28T22:51:26.171Z,17.33
2019-04-28T22:53:59.587Z,18.09
2019-04-28T22:56:35.782Z,17.42
2019-04-28T22:59:21.834Z,16.67
2019-04-28T23:02:10.064Z,16.39
2019-04-28T23:04:49.100Z,17.39
2019-04-28T23:07:20.738Z,18.20
2019-04-28T23:09:52.373Z,17.84
2019-04-28T23:12:24.228Z,17.10
2019-04-28T23:14:56.850Z,16.45
2019-04-28T23:17:28.769Z,16.33
2019-04-28T23:20:00.707Z,17.28
2019-04-28T23:22:47.123Z,18.18
2019-04-28T23:25:16.697Z,17.91
2019-04-28T23:27:48.539Z,17.15
2019-04-28T23:30:45.327Z,16.53
2019-04-28T23:33:17.046Z,16.20
2019-04-28T23:35:48.687Z,17.11
2019-04-28T23:38:20.432Z,18.02
2019-04-28T23:41:02.757Z,17.87
2019-04-28T23:43:34.398Z,17.11
2019-04-28T23:46:06.240Z,16.48
2019-04-28T23:48:37.983Z,16.84
2019-04-28T23:51:18.564Z,17.69
2019-04-28T23:54:06.962Z,18.12
2019-04-28T23:56:40.841Z,17.33
2019-04-28T23:59:12.710Z,16.68
